Parker, ID (83438)

9:57 AM MDT on May 28, 2015 (GMT -0600)
Fremont County Courthouse | | Change Station
CLOSE
Current Station
Personal Weather Station
Location: St Anthony, ID
Elevation: 4972 ft
Nearby Weather Stations

Elev 4972 ft 43.97 °N, 111.68 °W | Updated 1 second ago

Overcast
Overcast
50.9 °F
Feels Like 50.9 °F
N
0.0
Wind Variable Wind from NE
Gusts 4.0 mph

Today
High -- | Low -- °F
--% Chance of Precip.
Yesterday
High -- | Low -- °F
Precip. -- in
5:49 AM 8:59 PM
Waxing Gibbous, 76% visible
Pressure 30.11 in
Visibility 10.0 miles
Clouds Mostly Cloudy 3300 ft
Overcast 4300 ft
Dew Point 45 °F
Humidity 93%
Rainfall 0.05 in
Snow Depth Not available.
UV 1 out of 12
Pollen 6.80 out of 12
Air Quality Not available.
Flu Activity Sporadic
METAR KRXE 281453Z AUTO 10004KT 10SM BKN033 OVC043 09/08 A3013 RMK AO2 RAE1356 SLP195 P0000 60002 T00940078 51009

More Conditions Fewer Conditions

Pressure 30.11 in
Visibility 10.0 miles
Clouds Mostly Cloudy 3300 ft
Overcast 4300 ft
Dew Point 45 °F
Humidity 93%
Rainfall 0.05 in
Snow Depth Not available.
UV 1 out of 12
Pollen 6.80 out of 12
Air Quality Not available.
Flu Activity Sporadic
METAR KRXE 281453Z AUTO 10004KT 10SM BKN033 OVC043 09/08 A3013 RMK AO2 RAE1356 SLP195 P0000 60002 T00940078 51009

More Conditions Fewer Conditions

10-Day Weather Forecast

Almanac

Astronomy

May. 28, 2015 Rise Set
Actual Time
Civil Twilight
Nautical Twilight
Astronomical Twilight
Moon
Length of Visible Light
Length of Day
Tomorrow will be .
, % of the Moon is Illuminated

Today's Extremes

State Highs State Lows

Community

WunderPhotos

Upload Photos

1,824,999 photos uploaded!

WunderBlogs® & News

Nearby

Air Quality

  Air Quality AQ Index Pollutant
Not available.

Snow Depth

Station Depth Elevation

Earthquake Activity

City Distance Mag. Time & Date
Minimum magnitude displayed is 2.5.

Coastal Water Temperatures

Place Temperature

Stations

Nearby Weather Stations

Station Location Temp. Windchill Dew Point Humidity Wind Precip. Elev Updated Type